createdAt,value
2023-03-28T04:27:38.347Z,0.29
2023-03-28T04:28:38.296Z,0.26
2023-03-28T04:29:38.326Z,0.31
2023-03-28T04:30:38.300Z,0.32
2023-03-28T04:31:38.283Z,0.34
2023-03-28T04:32:38.285Z,0.34
2023-03-28T04:33:38.245Z,0.32
2023-03-28T04:34:39.054Z,0.32
2023-03-28T04:35:38.295Z,0.32
2023-03-28T04:36:38.209Z,0.29
2023-03-28T04:37:38.183Z,0.25
2023-03-28T04:38:38.210Z,0.25
2023-03-28T04:39:38.222Z,0.23
2023-03-28T04:40:38.160Z,0.25
2023-03-28T04:41:38.174Z,0.23
2023-03-28T04:42:38.153Z,0.21
2023-03-28T04:43:38.125Z,0.21
2023-03-28T04:44:38.148Z,0.25
2023-03-28T04:45:38.134Z,0.25
2023-03-28T04:46:38.120Z,0.25
2023-03-28T04:47:38.131Z,0.25
2023-03-28T04:48:38.069Z,0.31
2023-03-28T04:49:38.106Z,0.31
2023-03-28T04:50:38.044Z,0.32
2023-03-28T04:51:38.024Z,0.34
2023-03-28T04:52:38.031Z,0.40
2023-03-28T04:53:38.016Z,0.46
2023-03-28T04:54:38.024Z,0.56
2023-03-28T04:55:38.026Z,0.59
2023-03-28T04:56:38.020Z,0.65
2023-03-28T04:57:37.960Z,0.65
2023-03-28T04:58:37.937Z,0.68
2023-03-28T04:59:37.941Z,0.69
2023-03-28T05:00:37.974Z,0.70
2023-03-28T05:01:37.929Z,0.74
2023-03-28T05:02:38.064Z,0.76
2023-03-28T05:03:37.924Z,0.77
2023-03-28T05:04:37.887Z,0.80
2023-03-28T05:05:37.941Z,0.81
2023-03-28T05:06:37.878Z,0.84
2023-03-28T05:07:37.841Z,0.86
2023-03-28T05:08:37.846Z,0.88
2023-03-28T05:09:37.839Z,0.91
2023-03-28T05:10:37.864Z,0.91
2023-03-28T05:11:37.793Z,0.94
2023-03-28T05:12:37.790Z,0.96
2023-03-28T05:13:37.781Z,0.98
2023-03-28T05:14:37.766Z,0.99
2023-03-28T05:15:37.784Z,0.99
2023-03-28T05:16:37.835Z,1.02
2023-03-28T05:17:37.729Z,1.05
2023-03-28T05:18:37.720Z,1.13
2023-03-28T05:19:37.694Z,1.16
2023-03-28T05:20:37.730Z,1.22
2023-03-28T05:21:37.716Z,1.31
2023-03-28T05:22:37.663Z,1.44
2023-03-28T05:23:37.669Z,1.58
2023-03-28T05:24:37.636Z,1.63
2023-03-28T05:25:37.685Z,1.68
2023-03-28T05:26:37.609Z,1.74
2023-03-28T05:27:37.609Z,1.73
2023-03-28T05:28:37.576Z,1.70
2023-03-28T05:29:37.677Z,1.73
2023-03-28T05:30:37.602Z,1.70
2023-03-28T05:31:37.641Z,1.62
2023-03-28T05:32:37.691Z,1.55
2023-03-28T05:33:37.560Z,1.49
2023-03-28T05:34:37.571Z,1.45
2023-03-28T05:35:37.612Z,1.37
2023-03-28T05:36:37.496Z,1.31
2023-03-28T05:37:38.676Z,1.28
2023-03-28T05:38:37.500Z,1.28
2023-03-28T05:39:37.475Z,1.26
2023-03-28T05:40:37.524Z,1.24
2023-03-28T05:41:37.463Z,1.59
2023-03-28T05:42:37.464Z,1.70
2023-03-28T05:43:37.406Z,1.87
2023-03-28T05:44:37.417Z,1.92
2023-03-28T05:45:37.460Z,1.92
2023-03-28T05:46:37.396Z,2.32
2023-03-28T05:47:37.433Z,2.61
2023-03-28T05:48:37.364Z,2.79
2023-03-28T05:49:37.346Z,2.80
2023-03-28T05:50:37.392Z,2.69
2023-03-28T05:51:37.339Z,2.39
2023-03-28T05:52:37.323Z,2.17
2023-03-28T05:53:37.304Z,2.04
2023-03-28T05:54:37.303Z,1.89
2023-03-28T05:55:37.325Z,1.74
2023-03-28T05:56:37.295Z,1.78
2023-03-28T05:57:37.257Z,2.26
2023-03-28T05:58:37.236Z,2.51
2023-03-28T05:59:37.254Z,2.69
2023-03-28T06:00:37.275Z,2.46
2023-03-28T06:01:37.213Z,2.25
2023-03-28T06:02:37.255Z,2.22
2023-03-28T06:03:37.246Z,2.39
2023-03-28T06:04:37.248Z,2.43
2023-03-28T06:05:37.179Z,2.50
2023-03-28T06:06:37.207Z,2.68
2023-03-28T06:07:42.649Z,2.95
2023-03-28T06:08:38.143Z,3.13
2023-03-28T06:09:37.129Z,3.31
2023-03-28T06:10:37.108Z,3.22
2023-03-28T06:11:37.170Z,3.44
2023-03-28T06:12:37.100Z,3.59
2023-03-28T06:13:37.075Z,3.58
2023-03-28T06:14:37.061Z,3.44
2023-03-28T06:15:37.067Z,3.48
2023-03-28T06:16:37.185Z,3.66
2023-03-28T06:17:37.046Z,3.83
2023-03-28T06:18:37.050Z,3.66
2023-03-28T06:19:37.064Z,3.74
2023-03-28T06:20:36.995Z,3.60
2023-03-28T06:21:37.038Z,3.92
2023-03-28T06:22:36.987Z,3.81
2023-03-28T06:23:36.971Z,4.06
2023-03-28T06:24:36.974Z,3.74
2023-03-28T06:25:36.934Z,3.29
2023-03-28T06:26:36.961Z,3.19
2023-03-28T06:27:36.904Z,3.45
2023-03-28T06:28:36.923Z,3.63
2023-03-28T06:29:36.912Z,4.16
2023-03-28T06:30:36.910Z,4.14
2023-03-28T06:31:36.977Z,4.48
2023-03-28T06:32:36.882Z,4.90
2023-03-28T06:33:36.891Z,4.86
2023-03-28T06:34:36.850Z,5.30
2023-03-28T06:35:36.865Z,5.47
2023-03-28T06:36:36.867Z,6.22
2023-03-28T06:37:36.804Z,6.48
2023-03-28T06:38:36.847Z,5.84
2023-03-28T06:39:36.790Z,5.35
2023-03-28T06:40:36.805Z,4.75
2023-03-28T06:41:36.817Z,5.14
2023-03-28T06:42:36.767Z,4.73
2023-03-28T06:43:36.745Z,4.41
2023-03-28T06:44:36.728Z,4.04
2023-03-28T06:45:36.727Z,3.70
2023-03-28T06:46:36.770Z,3.45
2023-03-28T06:47:36.708Z,3.78
2023-03-28T06:48:36.749Z,4.52
2023-03-28T06:49:36.721Z,4.73
2023-03-28T06:50:36.687Z,4.34
2023-03-28T06:51:36.688Z,4.42
2023-03-28T06:52:36.629Z,3.91
2023-03-28T06:53:36.622Z,3.50
2023-03-28T06:54:36.613Z,3.11
2023-03-28T06:55:36.612Z,3.41
2023-03-28T06:56:36.650Z,3.25
2023-03-28T06:57:36.604Z,3.13
2023-03-28T06:58:36.572Z,3.01
2023-03-28T06:59:36.556Z,3.04
2023-03-28T07:00:36.556Z,3.19
2023-03-28T07:01:36.674Z,3.45
2023-03-28T07:02:36.652Z,4.06
2023-03-28T07:03:36.599Z,4.41
2023-03-28T07:04:36.638Z,4.08
2023-03-28T07:05:36.494Z,3.92
2023-03-28T07:06:36.543Z,3.76
2023-03-28T07:07:36.482Z,3.68
2023-03-28T07:08:36.446Z,3.58
2023-03-28T07:09:36.469Z,4.35
2023-03-28T07:10:36.433Z,4.19
2023-03-28T07:11:36.465Z,4.02
2023-03-28T07:12:36.422Z,3.81
2023-03-28T07:13:36.417Z,3.92
2023-03-28T07:14:36.412Z,4.08
2023-03-28T07:15:36.381Z,4.53
2023-03-28T07:16:36.453Z,4.05
2023-03-28T07:17:36.394Z,4.22
2023-03-28T07:18:36.363Z,4.42
2023-03-28T07:19:36.354Z,4.78
2023-03-28T07:20:36.317Z,5.05
2023-03-28T07:21:36.309Z,6.26
2023-03-28T07:22:36.360Z,7.15
2023-03-28T07:23:36.333Z,7.35
2023-03-28T07:24:36.325Z,6.93
2023-03-28T07:25:36.280Z,6.45
2023-03-28T07:26:36.297Z,6.12
2023-03-28T07:27:36.289Z,6.48
2023-03-28T07:28:36.235Z,6.72
2023-03-28T07:29:36.247Z,7.28
2023-03-28T07:30:36.237Z,7.67
2023-03-28T07:31:36.223Z,8.23
2023-03-28T07:32:47.516Z,8.48
2023-03-28T07:33:38.274Z,8.15
2023-03-28T07:34:36.169Z,8.88
2023-03-28T07:35:36.180Z,9.10
2023-03-28T07:36:36.147Z,8.12
2023-03-28T07:38:48.619Z,7.35
2023-03-28T07:39:46.366Z,7.60
2023-03-28T07:40:46.372Z,7.07
2023-03-28T07:41:46.394Z,6.24
2023-03-28T07:42:46.362Z,6.63
2023-03-28T07:43:46.356Z,8.01
2023-03-28T07:44:46.296Z,7.94
2023-03-28T07:45:46.332Z,7.14
2023-03-28T07:46:46.338Z,6.48
2023-03-28T07:47:46.337Z,6.45
2023-03-28T07:48:46.301Z,6.02
2023-03-28T07:49:46.278Z,5.59
2023-03-28T07:50:46.266Z,5.23
2023-03-28T07:51:46.281Z,5.66
2023-03-28T07:52:46.223Z,6.04
2023-03-28T07:53:46.219Z,6.93
2023-03-28T07:54:46.211Z,7.31
2023-03-28T07:55:54.392Z,6.79
2023-03-28T07:56:47.235Z,6.88
2023-03-28T07:57:46.180Z,6.75
2023-03-28T07:58:46.191Z,7.13
2023-03-28T07:59:46.164Z,6.67
2023-03-28T08:00:46.170Z,6.07
2023-03-28T08:01:46.189Z,6.05
2023-03-28T08:02:46.221Z,5.44
2023-03-28T08:03:46.248Z,6.31
2023-03-28T08:04:46.119Z,7.21
2023-03-28T08:05:46.141Z,7.88
2023-03-28T08:06:46.094Z,8.38
2023-03-28T08:07:46.126Z,8.61
2023-03-28T08:08:46.050Z,8.66
2023-03-28T08:09:46.039Z,9.11
2023-03-28T08:10:46.046Z,9.86
2023-03-28T08:11:46.077Z,9.44
2023-03-28T08:12:45.996Z,9.10
2023-03-28T08:13:46.014Z,8.76
2023-03-28T08:14:46.010Z,8.87
2023-03-28T08:15:46.028Z,9.36
2023-03-28T08:16:45.989Z,9.55
2023-03-28T08:17:46.056Z,9.59
2023-03-28T08:18:47.534Z,9.86
2023-03-28T08:19:46.905Z,9.66
2023-03-28T08:20:45.915Z,10.02
2023-03-28T08:21:45.940Z,10.41
2023-03-28T08:22:45.887Z,10.15
2023-03-28T08:23:45.884Z,10.56
2023-03-28T08:24:45.854Z,10.02
2023-03-28T08:25:45.866Z,10.76
2023-03-28T08:26:48.136Z,11.26
2023-03-28T08:27:45.837Z,11.80
2023-03-28T08:28:45.821Z,11.62
2023-03-28T08:29:45.833Z,11.60
2023-03-28T08:30:45.786Z,12.07
2023-03-28T08:31:45.956Z,11.22
2023-03-28T08:32:48.721Z,10.01
2023-03-28T08:33:45.786Z,9.91
2023-03-28T08:34:45.752Z,9.37
2023-03-28T08:35:45.752Z,9.37
2023-03-28T08:36:45.759Z,9.82
2023-03-28T08:37:45.704Z,9.58
2023-03-28T08:38:45.702Z,9.23
2023-03-28T08:39:45.724Z,9.44
2023-03-28T08:40:45.668Z,9.72
2023-03-28T08:41:45.727Z,9.37
2023-03-28T08:42:45.743Z,9.54
2023-03-28T08:43:45.664Z,8.20
2023-03-28T08:44:47.313Z,8.56
2023-03-28T08:45:45.645Z,9.06
2023-03-28T08:46:45.706Z,9.98
2023-03-28T08:47:45.710Z,10.97
2023-03-28T08:48:45.601Z,10.67
2023-03-28T08:49:45.588Z,9.83
2023-03-28T08:50:45.576Z,10.78
2023-03-28T08:51:45.610Z,11.26
2023-03-28T08:52:45.540Z,12.40
2023-03-28T08:53:45.619Z,12.07
2023-03-28T08:54:45.528Z,11.33
2023-03-28T08:55:45.536Z,10.61
2023-03-28T08:56:45.628Z,10.17
2023-03-28T08:57:45.499Z,9.02
2023-03-28T08:58:45.619Z,8.37
2023-03-28T08:59:45.480Z,7.94
2023-03-28T09:00:45.461Z,8.79
2023-03-28T09:01:45.522Z,7.77
2023-03-28T09:02:45.486Z,8.03
2023-03-28T09:03:45.488Z,7.51
2023-03-28T09:04:45.425Z,7.83
2023-03-28T09:05:45.394Z,9.32
2023-03-28T09:06:45.432Z,9.37
2023-03-28T09:07:45.356Z,9.54
2023-03-28T09:08:45.365Z,9.11
2023-03-28T09:09:45.354Z,8.63
2023-03-28T09:10:45.353Z,8.01
2023-03-28T09:11:45.373Z,7.82
2023-03-28T09:12:45.311Z,7.56
2023-03-28T09:13:45.321Z,7.45
2023-03-28T09:14:45.292Z,7.43
2023-03-28T09:15:45.277Z,7.31
2023-03-28T09:16:45.343Z,6.97
2023-03-28T09:17:45.333Z,6.70
2023-03-28T09:18:45.246Z,6.66
2023-03-28T09:19:48.297Z,6.56
2023-03-28T09:20:45.243Z,6.51
2023-03-28T09:21:45.224Z,6.33
2023-03-28T09:22:45.235Z,6.60
2023-03-28T09:23:45.202Z,6.74
2023-03-28T09:24:45.191Z,6.89
2023-03-28T09:25:45.188Z,6.36
2023-03-28T09:26:45.271Z,6.31
2023-03-28T09:27:45.188Z,6.84
2023-03-28T09:28:45.151Z,6.99
2023-03-28T09:29:45.147Z,8.03
2023-03-28T09:30:45.142Z,8.01
2023-03-28T09:31:45.126Z,7.58
2023-03-28T09:32:45.171Z,7.29
2023-03-28T09:33:45.090Z,7.03
2023-03-28T09:34:45.046Z,6.74
2023-03-28T09:35:45.069Z,6.57
2023-03-28T09:36:48.967Z,6.46
2023-03-28T09:37:46.072Z,6.16
2023-03-28T09:38:45.039Z,6.14
2023-03-28T09:39:45.021Z,6.19
2023-03-28T09:40:45.013Z,6.22
2023-03-28T09:41:44.991Z,6.89
2023-03-28T09:42:45.023Z,8.38
2023-03-28T09:43:44.967Z,9.50
2023-03-28T09:44:54.271Z,10.48
2023-03-28T09:45:45.957Z,10.12
2023-03-28T09:46:44.942Z,8.94
2023-03-28T09:47:45.027Z,7.91
2023-03-28T09:48:45.014Z,7.63
2023-03-28T09:49:44.925Z,7.54
2023-03-28T09:50:44.896Z,7.10
2023-03-28T09:51:44.868Z,7.35
2023-03-28T09:52:44.909Z,6.92
2023-03-28T09:53:44.849Z,7.02
2023-03-28T09:54:44.839Z,7.03
2023-03-28T09:55:51.589Z,6.89
2023-03-28T09:56:45.822Z,6.85
2023-03-28T09:57:44.852Z,6.82
2023-03-28T09:58:44.775Z,6.78
2023-03-28T09:59:44.789Z,6.60
2023-03-28T10:00:44.778Z,7.20
2023-03-28T10:01:44.873Z,7.63
2023-03-28T10:02:44.814Z,7.36
2023-03-28T10:03:44.726Z,7.14
2023-03-28T10:04:44.845Z,6.93
2023-03-28T10:05:44.689Z,6.95
2023-03-28T10:06:44.700Z,6.95
2023-03-28T10:07:44.739Z,6.79
2023-03-28T10:08:44.714Z,6.60
2023-03-28T10:09:44.662Z,6.35
2023-03-28T10:10:44.655Z,6.36
2023-03-28T10:11:44.636Z,6.28
2023-03-28T10:12:44.671Z,6.30
2023-03-28T10:13:44.638Z,6.28
2023-03-28T10:14:44.606Z,6.27
2023-03-28T10:15:44.663Z,6.30
2023-03-28T10:16:44.589Z,6.19
2023-03-28T10:17:44.703Z,5.98
2023-03-28T10:18:44.557Z,6.05
2023-03-28T10:19:44.539Z,5.84
2023-03-28T10:20:44.543Z,5.98
2023-03-28T10:21:44.514Z,6.35
2023-03-28T10:22:44.547Z,6.46
2023-03-28T10:23:44.511Z,6.54
2023-03-28T10:24:44.473Z,6.75
2023-03-28T10:25:44.497Z,6.87
2023-03-28T10:26:44.470Z,6.99
2023-03-28T10:27:44.523Z,7.73
2023-03-28T10:28:44.490Z,8.61
2023-03-28T10:29:44.443Z,8.78
2023-03-28T10:30:44.429Z,9.22
2023-03-28T10:31:44.412Z,8.51
2023-03-28T10:32:44.457Z,8.45
2023-03-28T10:33:44.426Z,8.13
2023-03-28T10:34:44.379Z,7.66
2023-03-28T10:35:44.368Z,8.53
2023-03-28T10:36:44.367Z,9.40
2023-03-28T10:37:44.359Z,10.04
2023-03-28T10:38:44.362Z,9.87
2023-03-28T10:39:44.317Z,9.65
2023-03-28T10:40:44.353Z,9.29
2023-03-28T10:41:44.306Z,9.26
2023-03-28T10:42:44.351Z,8.09
2023-03-28T10:43:44.307Z,7.56
2023-03-28T10:44:44.275Z,7.29
2023-03-28T10:45:44.238Z,6.85
2023-03-28T10:46:44.399Z,6.74
2023-03-28T10:47:44.316Z,6.66
2023-03-28T10:48:44.215Z,6.41
2023-03-28T10:49:44.206Z,6.27
2023-03-28T10:50:44.174Z,6.01
2023-03-28T10:51:44.204Z,6.11
2023-03-28T10:52:44.216Z,6.19
2023-03-28T10:53:44.178Z,7.85
2023-03-28T10:54:44.142Z,8.60
2023-03-28T10:55:44.147Z,8.51
2023-03-28T10:56:44.201Z,9.29
2023-03-28T10:57:44.180Z,9.51
2023-03-28T10:58:44.114Z,8.64
2023-03-28T10:59:44.076Z,9.46
2023-03-28T11:00:44.086Z,10.42
2023-03-28T11:01:44.114Z,11.10
2023-03-28T11:02:44.161Z,10.76
2023-03-28T11:03:44.169Z,10.09
2023-03-28T11:04:44.031Z,9.76
2023-03-28T11:05:45.263Z,8.95
2023-03-28T11:06:45.002Z,8.36
2023-03-28T11:07:44.027Z,7.98
2023-03-28T11:08:44.011Z,7.72
2023-03-28T11:09:43.950Z,7.43
2023-03-28T11:10:43.984Z,7.21
2023-03-28T11:11:43.942Z,6.97
2023-03-28T11:12:53.963Z,7.72
2023-03-28T11:13:44.931Z,9.08
2023-03-28T11:14:43.946Z,10.19
2023-03-28T11:15:43.949Z,10.19
2023-03-28T11:16:43.924Z,10.90
2023-03-28T11:17:43.953Z,10.82
2023-03-28T11:18:43.887Z,10.82
2023-03-28T11:19:43.849Z,11.07
2023-03-28T11:20:43.883Z,10.72
2023-03-28T11:21:43.851Z,9.66
2023-03-28T11:22:52.333Z,9.16
2023-03-28T11:23:44.847Z,8.44
2023-03-28T11:24:43.808Z,8.84
2023-03-28T11:25:43.772Z,8.70
2023-03-28T11:26:43.769Z,8.23
2023-03-28T11:27:43.799Z,8.01
2023-03-28T11:28:46.071Z,7.58
2023-03-28T11:29:44.392Z,7.75
2023-03-28T11:30:43.732Z,8.66
2023-03-28T11:31:43.771Z,9.41
2023-03-28T11:32:43.810Z,9.74
2023-03-28T11:33:43.683Z,9.41
2023-03-28T11:34:43.689Z,9.03
2023-03-28T11:35:43.711Z,9.06
2023-03-28T11:36:43.660Z,9.06
2023-03-28T11:37:43.700Z,8.73
2023-03-28T11:38:43.636Z,8.18
2023-03-28T11:39:43.633Z,7.93
2023-03-28T11:40:43.662Z,8.06
2023-03-28T11:41:43.639Z,8.19
2023-03-28T11:42:43.672Z,8.99
2023-03-28T11:43:43.551Z,9.61
2023-03-28T11:44:43.564Z,10.28
2023-03-28T11:45:52.049Z,9.66
2023-03-28T11:46:44.643Z,9.28
2023-03-28T11:47:43.721Z,9.08
2023-03-28T11:48:43.532Z,8.82
2023-03-28T11:49:43.511Z,8.71
2023-03-28T11:50:43.579Z,8.09
2023-03-28T11:51:43.503Z,7.80
2023-03-28T11:52:43.528Z,7.88
2023-03-28T11:53:43.500Z,7.80
2023-03-28T11:54:43.506Z,8.51
2023-03-28T11:55:43.417Z,10.34
2023-03-28T11:56:43.487Z,11.07
2023-03-28T11:57:43.458Z,11.12
2023-03-28T11:58:43.407Z,10.41
2023-03-28T11:59:43.378Z,10.02
2023-03-28T12:00:43.399Z,10.86
2023-03-28T12:01:43.349Z,10.94
2023-03-28T12:02:43.465Z,10.04
2023-03-28T12:03:43.412Z,9.29
2023-03-28T12:04:43.349Z,8.70
2023-03-28T12:05:43.343Z,7.95
2023-03-28T12:06:52.284Z,7.58
2023-03-28T12:07:44.354Z,7.69
2023-03-28T12:08:43.293Z,7.73
2023-03-28T12:09:43.410Z,8.15
2023-03-28T12:10:43.267Z,9.26
2023-03-28T12:11:43.274Z,8.78
2023-03-28T12:12:43.260Z,8.49
2023-03-28T12:13:46.238Z,8.09
2023-03-28T12:14:43.212Z,7.82
2023-03-28T12:15:43.207Z,7.90
2023-03-28T12:16:43.267Z,7.80
2023-03-28T12:17:43.237Z,7.69
2023-03-28T12:18:43.223Z,7.39
2023-03-28T12:19:43.158Z,7.31
2023-03-28T12:20:43.148Z,7.32
2023-03-28T12:21:43.127Z,7.56
2023-03-28T12:22:43.139Z,7.75
2023-03-28T12:23:43.165Z,8.76
2023-03-28T12:24:43.167Z,9.80
2023-03-28T12:25:43.105Z,10.68
2023-03-28T12:26:43.075Z,9.86
2023-03-28T12:27:43.062Z,9.79
2023-03-28T12:28:43.103Z,9.44
2023-03-28T12:29:43.063Z,9.16
2023-03-28T12:30:43.103Z,8.78
2023-03-28T12:31:43.005Z,8.71
2023-03-28T12:32:43.057Z,8.92
2023-03-28T12:33:43.021Z,8.95
2023-03-28T12:34:42.994Z,8.95
2023-03-28T12:35:43.007Z,9.00
2023-03-28T12:36:42.964Z,9.56
2023-03-28T12:37:42.961Z,9.54
2023-03-28T12:38:43.005Z,9.55
2023-03-28T12:39:42.934Z,9.47
2023-03-28T12:40:42.922Z,9.58
2023-03-28T12:41:42.903Z,9.61
2023-03-28T12:42:42.913Z,9.58
2023-03-28T12:43:42.919Z,9.91
2023-03-28T12:44:42.882Z,9.79
2023-03-28T12:45:42.897Z,9.31
2023-03-28T12:46:42.864Z,9.99
2023-03-28T12:47:42.887Z,9.37
2023-03-28T12:48:42.872Z,10.22
2023-03-28T12:49:42.797Z,11.17
2023-03-28T12:50:42.789Z,12.06
2023-03-28T12:51:42.800Z,12.02
2023-03-28T12:52:42.768Z,11.87
2023-03-28T12:53:42.810Z,11.41
2023-03-28T12:54:42.776Z,11.97
2023-03-28T12:55:42.740Z,12.61
2023-03-28T12:56:42.748Z,12.67
2023-03-28T12:57:42.773Z,11.73
2023-03-28T12:58:42.780Z,11.59
2023-03-28T12:59:42.692Z,11.18
2023-03-28T13:00:42.711Z,10.61
2023-03-28T13:01:42.710Z,9.99
2023-03-28T13:02:42.725Z,9.41
2023-03-28T13:03:42.685Z,9.46
2023-03-28T13:04:42.678Z,9.40
2023-03-28T13:05:42.683Z,9.84
2023-03-28T13:06:42.735Z,10.53
2023-03-28T13:07:42.589Z,11.47
2023-03-28T13:08:42.685Z,11.23
2023-03-28T13:09:42.612Z,11.05
2023-03-28T13:10:42.617Z,10.46
2023-03-28T13:11:42.570Z,9.89
2023-03-28T13:12:42.577Z,10.59
2023-03-28T13:13:42.576Z,10.49
2023-03-28T13:14:42.548Z,11.22
2023-03-28T13:15:42.530Z,11.80
2023-03-28T13:16:42.506Z,12.62
2023-03-28T13:17:42.505Z,13.49
2023-03-28T13:18:42.534Z,13.62
2023-03-28T13:19:42.482Z,13.44
2023-03-28T13:20:42.477Z,13.12
2023-03-28T13:21:42.442Z,13.31
2023-03-28T13:22:42.453Z,12.32
2023-03-28T13:23:42.471Z,11.07
2023-03-28T13:24:42.415Z,10.04
2023-03-28T13:25:42.399Z,10.92
2023-03-28T13:26:42.397Z,11.51
2023-03-28T13:27:42.403Z,11.33
2023-03-28T13:28:42.424Z,10.87
2023-03-28T13:29:42.378Z,10.40
2023-03-28T13:30:42.340Z,10.23
2023-03-28T13:31:42.453Z,9.84
2023-03-28T13:32:42.354Z,9.40
2023-03-28T13:33:44.418Z,9.04
2023-03-28T13:34:42.308Z,8.92
2023-03-28T13:35:42.324Z,8.78
2023-03-28T13:36:42.297Z,8.92
2023-03-28T13:37:42.264Z,9.26
2023-03-28T13:38:42.302Z,10.10
2023-03-28T13:39:42.231Z,10.71
2023-03-28T13:40:42.235Z,11.35
2023-03-28T13:41:42.212Z,12.28
2023-03-28T13:42:42.195Z,12.36
2023-03-28T13:43:43.668Z,12.73
2023-03-28T13:44:42.214Z,12.82
2023-03-28T13:45:42.223Z,13.33
2023-03-28T13:46:42.302Z,13.62
2023-03-28T13:47:42.182Z,13.09
2023-03-28T13:48:42.310Z,13.22
2023-03-28T13:49:42.140Z,12.65
2023-03-28T13:50:42.100Z,13.03
2023-03-28T13:51:42.094Z,13.31
2023-03-28T13:52:42.304Z,12.72
2023-03-28T13:53:48.177Z,12.67
2023-03-28T13:54:43.073Z,12.68
2023-03-28T13:55:42.088Z,12.68
2023-03-28T13:56:42.071Z,12.57
2023-03-28T13:57:42.041Z,12.60
2023-03-28T13:58:42.075Z,12.72
2023-03-28T13:59:42.015Z,12.79
2023-03-28T14:00:42.053Z,12.83
2023-03-28T14:01:42.000Z,12.28
2023-03-28T14:02:42.055Z,12.10
2023-03-28T14:03:43.662Z,12.12
2023-03-28T14:04:41.968Z,11.23
2023-03-28T14:05:41.924Z,10.31
2023-03-28T14:06:41.958Z,9.76
2023-03-28T14:07:41.937Z,9.72
2023-03-28T14:08:41.950Z,9.25
2023-03-28T14:09:41.907Z,9.55
2023-03-28T14:10:41.902Z,10.12
2023-03-28T14:11:41.883Z,10.34
2023-03-28T14:12:41.863Z,10.33
2023-03-28T14:13:41.890Z,11.18
2023-03-28T14:14:41.850Z,11.35
2023-03-28T14:15:41.824Z,11.63
2023-03-28T14:16:41.867Z,12.00
2023-03-28T14:17:41.814Z,12.31
2023-03-28T14:18:41.846Z,12.39
2023-03-28T14:19:41.829Z,12.57
2023-03-28T14:20:41.771Z,12.79
2023-03-28T14:21:41.763Z,12.47
2023-03-28T14:22:52.827Z,12.78
2023-03-28T14:23:42.781Z,12.31
2023-03-28T14:24:41.749Z,12.02
2023-03-28T14:25:41.734Z,11.73
2023-03-28T14:26:41.811Z,11.48
2023-03-28T14:27:41.705Z,11.66
2023-03-28T14:28:41.702Z,11.97
2023-03-28T14:29:41.664Z,11.65
2023-03-28T14:30:41.636Z,11.91
2023-03-28T14:31:41.729Z,12.17
2023-03-28T14:32:56.484Z,11.81
2023-03-28T14:33:47.589Z,12.03
2023-03-28T14:34:42.620Z,12.27
2023-03-28T14:35:41.644Z,12.40
2023-03-28T14:36:41.596Z,12.37
2023-03-28T14:37:41.583Z,12.60
2023-03-28T14:38:41.582Z,12.24
2023-03-28T14:39:41.742Z,12.42
2023-03-28T14:40:41.552Z,12.46
2023-03-28T14:41:41.555Z,12.61
2023-03-28T14:42:41.540Z,11.87
2023-03-28T14:43:41.505Z,10.96
2023-03-28T14:44:41.537Z,10.63
2023-03-28T14:45:41.505Z,10.87
2023-03-28T14:46:41.488Z,11.11
2023-03-28T14:47:41.491Z,11.43
2023-03-28T14:48:41.459Z,11.80
2023-03-28T14:49:41.476Z,11.87
2023-03-28T14:50:41.424Z,11.68
2023-03-28T14:51:41.444Z,11.43
2023-03-28T14:52:41.400Z,11.29
2023-03-28T14:53:41.394Z,11.00
2023-03-28T14:54:41.431Z,11.22
2023-03-28T14:55:41.363Z,11.44
2023-03-28T14:56:41.378Z,11.35
2023-03-28T14:57:41.363Z,11.59
2023-03-28T14:58:41.343Z,11.66
2023-03-28T14:59:41.369Z,11.63
2023-03-28T15:00:41.287Z,11.41
2023-03-28T15:01:41.324Z,10.67
2023-03-28T15:02:41.501Z,10.56
2023-03-28T15:03:41.315Z,10.48
2023-03-28T15:04:41.306Z,10.28
2023-03-28T15:05:41.262Z,10.33
2023-03-28T15:06:41.242Z,10.38
2023-03-28T15:07:41.230Z,10.59
2023-03-28T15:08:41.214Z,10.59
2023-03-28T15:09:41.373Z,10.71
2023-03-28T15:10:41.194Z,10.81
2023-03-28T15:11:41.209Z,10.68
2023-03-28T15:12:41.181Z,10.56
2023-03-28T15:13:41.158Z,10.74
2023-03-28T15:14:41.196Z,10.48
2023-03-28T15:15:41.186Z,10.23
2023-03-28T15:16:41.119Z,10.05
2023-03-28T15:17:41.177Z,9.41
2023-03-28T15:18:43.058Z,9.23
2023-03-28T15:19:41.151Z,9.31
2023-03-28T15:20:41.069Z,9.48
2023-03-28T15:21:41.068Z,9.26
2023-03-28T15:22:41.065Z,9.32
2023-03-28T15:23:41.163Z,9.31
2023-03-28T15:24:41.080Z,9.37
2023-03-28T15:25:41.083Z,9.19
2023-03-28T15:26:40.985Z,9.08
2023-03-28T15:27:40.991Z,9.31
2023-03-28T15:28:41.014Z,9.41
2023-03-28T15:29:41.015Z,9.64
2023-03-28T15:30:40.941Z,9.25
2023-03-28T15:31:41.053Z,8.91
2023-03-28T15:32:40.952Z,9.16
2023-03-28T15:33:40.916Z,9.36
2023-03-28T15:34:40.943Z,9.34
2023-03-28T15:35:40.956Z,9.11
2023-03-28T15:36:40.896Z,8.87
2023-03-28T15:37:40.913Z,8.73
2023-03-28T15:38:40.849Z,8.74
2023-03-28T15:39:40.890Z,8.79
2023-03-28T15:40:40.847Z,8.78
2023-03-28T15:41:40.839Z,8.67
2023-03-28T15:42:40.835Z,8.61
2023-03-28T15:43:40.816Z,8.58
2023-03-28T15:44:40.851Z,8.48
2023-03-28T15:45:40.860Z,8.41
2023-03-28T15:46:40.845Z,8.33
2023-03-28T15:47:40.815Z,8.26
2023-03-28T15:48:40.753Z,8.20
2023-03-28T15:49:40.812Z,8.15
2023-03-28T15:50:40.728Z,8.08
2023-03-28T15:51:40.716Z,7.95
2023-03-28T15:52:40.699Z,7.83
2023-03-28T15:53:40.702Z,7.83
2023-03-28T15:54:40.711Z,7.83
2023-03-28T15:55:40.708Z,7.79
2023-03-28T15:56:40.688Z,7.77
2023-03-28T15:57:40.658Z,7.67
2023-03-28T15:58:40.650Z,7.66
2023-03-28T15:59:40.660Z,7.61
2023-03-28T16:00:40.592Z,7.58
2023-03-28T16:01:40.616Z,7.51
2023-03-28T16:02:40.572Z,7.45
2023-03-28T16:03:40.664Z,7.36
2023-03-28T16:04:40.605Z,7.31
2023-03-28T16:05:40.553Z,7.28
2023-03-28T16:06:40.826Z,7.20
2023-03-28T16:07:40.564Z,7.17
2023-03-28T16:08:40.520Z,7.11
2023-03-28T16:09:40.549Z,7.07
2023-03-28T16:10:40.491Z,7.06
2023-03-28T16:11:40.480Z,7.02
2023-03-28T16:12:40.485Z,6.96
2023-03-28T16:13:40.505Z,6.96
2023-03-28T16:14:40.665Z,6.95
2023-03-28T16:15:40.446Z,6.89
2023-03-28T16:16:40.461Z,6.88
2023-03-28T16:17:40.474Z,6.79
2023-03-28T16:18:40.424Z,6.74
2023-03-28T16:19:40.417Z,6.66
2023-03-28T16:20:40.389Z,6.62
2023-03-28T16:21:40.384Z,6.56
2023-03-28T16:22:40.350Z,6.49
2023-03-28T16:23:40.383Z,6.42
2023-03-28T16:24:40.407Z,6.31
2023-03-28T16:25:40.328Z,6.26
2023-03-28T16:26:40.312Z,6.24
2023-03-28T16:27:40.328Z,6.22
2023-03-28T16:28:40.307Z,6.16
2023-03-28T16:29:40.337Z,6.08
2023-03-28T16:30:40.273Z,5.97
2023-03-28T16:31:40.301Z,5.84
2023-03-28T16:32:40.260Z,5.80
2023-03-28T16:33:40.218Z,5.69
2023-03-28T16:34:40.252Z,5.62
2023-03-28T16:35:40.318Z,5.61
2023-03-28T16:36:40.192Z,5.59
2023-03-28T16:37:40.196Z,5.53
2023-03-28T16:38:40.187Z,5.61
2023-03-28T16:39:40.190Z,5.54
2023-03-28T16:40:40.162Z,5.64
2023-03-28T16:41:40.156Z,5.66
2023-03-28T16:42:40.126Z,5.51
2023-03-28T16:43:40.185Z,5.50
2023-03-28T16:44:40.120Z,5.43
2023-03-28T16:45:40.106Z,5.32
2023-03-28T16:46:40.122Z,5.23
2023-03-28T16:47:40.122Z,5.10
2023-03-28T16:48:40.070Z,4.90
2023-03-28T16:49:40.089Z,4.74
2023-03-28T16:50:40.052Z,4.66
2023-03-28T16:51:40.053Z,4.60
2023-03-28T16:52:40.008Z,4.40
2023-03-28T16:53:39.986Z,4.31
2023-03-28T16:54:40.052Z,4.26
2023-03-28T16:55:39.973Z,4.20
2023-03-28T16:56:40.026Z,4.13
2023-03-28T16:57:39.978Z,4.08
2023-03-28T16:58:39.947Z,4.08
2023-03-28T16:59:39.992Z,4.01
2023-03-28T17:00:39.913Z,4.30
2023-03-28T17:01:39.920Z,4.23
2023-03-28T17:02:39.970Z,4.17
2023-03-28T17:03:39.922Z,4.08
2023-03-28T17:04:39.914Z,4.02
2023-03-28T17:05:39.885Z,3.98
2023-03-28T17:06:39.845Z,3.98
2023-03-28T17:07:39.838Z,3.95
2023-03-28T17:08:39.837Z,3.88
2023-03-28T17:09:39.874Z,3.83
2023-03-28T17:10:39.806Z,3.80
2023-03-28T17:11:39.806Z,3.76
2023-03-28T17:12:39.793Z,3.81
2023-03-28T17:13:39.762Z,3.81
2023-03-28T17:14:39.909Z,3.77
2023-03-28T17:15:39.763Z,3.73
2023-03-28T17:16:40.217Z,3.68
2023-03-28T17:17:39.765Z,3.60
2023-03-28T17:18:39.735Z,3.56
2023-03-28T17:19:39.766Z,3.50
2023-03-28T17:20:39.696Z,3.48
2023-03-28T17:21:39.688Z,3.41
2023-03-28T17:22:39.676Z,3.36
2023-03-28T17:23:39.643Z,3.18
2023-03-28T17:24:39.665Z,3.08
2023-03-28T17:25:53.935Z,3.08
2023-03-28T17:26:40.608Z,3.05
2023-03-28T17:27:39.616Z,3.11
2023-03-28T17:28:39.593Z,2.75
2023-03-28T17:29:39.630Z,2.74
2023-03-28T17:30:39.602Z,2.74
2023-03-28T17:31:39.573Z,2.71
2023-03-28T17:32:39.583Z,2.65
2023-03-28T17:33:39.555Z,2.65
2023-03-28T17:34:39.546Z,2.67
2023-03-28T17:35:39.558Z,2.90
2023-03-28T17:36:39.494Z,2.90
2023-03-28T17:37:39.513Z,2.86
2023-03-28T17:38:39.476Z,2.80
2023-03-28T17:39:39.557Z,2.75
2023-03-28T17:40:39.451Z,2.71